PWSweather.com
Personal Weather Stations
Station Observations
ALMOSTER
Urb. Mas Carreras, AlmosterES 43393

Urb. Mas CarrerasAlmosterES 43393

Lat: 41.1908333333, Lon: 1.1086111111

Elevation: 836.6

Station Type: Davis Vantage Pro 2

http://www.meteoalmoster.net

High Low Average
Temperature 66.4°F19.1°F 43.9°F6.6°F 53.8°F12.1°F
Dew Point 41.2°F5.1°F 27.1°F-2.7°F 34.6°F1.4°F
Winds 15.0 mph -24.1 mph - Calm Calm 6.5 mph 10.5 mph
Wind Gusts 32.0 mph51.5 mph -- 12.9 mph20.8 mph
Humidity 70% 24% 51%
Pressure 30.25 in1024.40 in 30.08 in1018.60 in -
Precipitation 0.00 in0.00 in - -
Hour Temp Dew Point Humidity Winds Wind Gusts Pressure Precip Precip Rate Daily Precip Total
12:00 AM 53.1°F11.7°C 36.9°F2.7°C 54% 13.0 mph NW20.9 kmh NW 20.0 mph32.2 kmh 30.08 in1018.6 mb 0.00 in0.0 mm 0.00 in0.0 mm 0.00 in0.0 mm
12:30 AM 52.0°F11.1°C 36.3°F2.4°C 55% 9.0 mph NW14.5 kmh NW 16.0 mph25.7 kmh 30.08 in1018.6 mb 0.00 in0.0 mm 0.00 in0.0 mm 0.00 in0.0 mm
01:00 AM 51.6°F10.9°C 36.3°F2.4°C 56% 5.0 mph NW8.0 kmh NW 11.0 mph17.7 kmh 30.08 in1018.6 mb 0.00 in0.0 mm 0.00 in0.0 mm 0.00 in0.0 mm
01:30 AM 51.4°F10.8°C 36.1°F2.3°C 56% 12.0 mph WNW19.3 kmh WNW 22.0 mph35.4 kmh 30.09 in1019.0 mb 0.00 in0.0 mm 0.00 in0.0 mm 0.00 in0.0 mm
02:00 AM 50.2°F10.1°C 36.3°F2.4°C 59% 8.0 mph WNW12.9 kmh WNW 15.0 mph24.1 kmh 30.09 in1019.0 mb 0.00 in0.0 mm 0.00 in0.0 mm 0.00 in0.0 mm
02:30 AM 49.5°F9.7°C 36.1°F2.3°C 60% 14.0 mph NW22.5 kmh NW 25.0 mph40.2 kmh 30.08 in1018.6 mb 0.00 in0.0 mm 0.00 in0.0 mm 0.00 in0.0 mm
03:00 AM 49.1°F9.5°C 35.8°F2.1°C 60% 15.0 mph NW24.1 kmh NW 28.0 mph45.1 kmh 30.08 in1018.6 mb 0.00 in0.0 mm 0.00 in0.0 mm 0.00 in0.0 mm
03:30 AM 48.9°F9.4°C 35.2°F1.8°C 59% 14.0 mph NW22.5 kmh NW 21.0 mph33.8 kmh 30.08 in1018.6 mb 0.00 in0.0 mm 0.00 in0.0 mm 0.00 in0.0 mm
04:00 AM 48.0°F8.9°C 35.2°F1.8°C 61% 12.0 mph NW19.3 kmh NW 18.0 mph29.0 kmh 30.10 in1019.3 mb 0.00 in0.0 mm 0.00 in0.0 mm 0.00 in0.0 mm
04:30 AM 47.1°F8.4°C 34.9°F1.6°C 62% 8.0 mph NW12.9 kmh NW 12.0 mph19.3 kmh 30.11 in1019.6 mb 0.00 in0.0 mm 0.00 in0.0 mm 0.00 in0.0 mm
05:00 AM 47.7°F8.7°C 34.9°F1.6°C 61% 8.0 mph NW12.9 kmh NW 14.0 mph22.5 kmh 30.12 in1020.0 mb 0.00 in0.0 mm 0.00 in0.0 mm 0.00 in0.0 mm
05:30 AM 47.8°F8.8°C 34.5°F1.4°C 60% 6.0 mph NW9.7 kmh NW 12.0 mph19.3 kmh 30.14 in1020.7 mb 0.00 in0.0 mm 0.00 in0.0 mm 0.00 in0.0 mm
06:00 AM 45.7°F7.6°C 34.2°F1.2°C 64% Calm Calm -- 30.16 in1021.3 mb 0.00 in0.0 mm 0.00 in0.0 mm 0.00 in0.0 mm
06:30 AM 44.2°F6.8°C 33.6°F0.9°C 66% 6.0 mph NW9.7 kmh NW 10.0 mph16.1 kmh 30.16 in1021.3 mb 0.00 in0.0 mm 0.00 in0.0 mm 0.00 in0.0 mm
07:00 AM 43.9°F6.6°C 32.0°F0.0°C 63% 3.0 mph NW4.8 kmh NW 6.0 mph9.7 kmh 30.16 in1021.3 mb 0.00 in0.0 mm 0.00 in0.0 mm 0.00 in0.0 mm
07:30 AM 46.9°F8.3°C 30.7°F-0.7°C 53% 2.0 mph NNW3.2 kmh NNW 4.0 mph6.4 kmh 30.17 in1021.7 mb 0.00 in0.0 mm 0.00 in0.0 mm 0.00 in0.0 mm
08:00 AM 54.7°F12.6°C 30.2°F-1.0°C 39% 6.0 mph N9.7 kmh N 10.0 mph16.1 kmh 30.17 in1021.7 mb 0.00 in0.0 mm 0.00 in0.0 mm 0.00 in0.0 mm
08:30 AM 56.8°F13.8°C 28.0°F-2.2°C 33% 5.0 mph N8.0 kmh N 12.0 mph19.3 kmh 30.17 in1021.7 mb 0.00 in0.0 mm 0.00 in0.0 mm 0.00 in0.0 mm
09:00 AM 57.2°F14.0°C 31.8°F-0.1°C 38% 8.0 mph NNW12.9 kmh NNW 17.0 mph27.4 kmh 30.16 in1021.3 mb 0.00 in0.0 mm 0.00 in0.0 mm 0.00 in0.0 mm
09:30 AM 56.3°F13.5°C 33.4°F0.8°C 42% 9.0 mph NW14.5 kmh NW 15.0 mph24.1 kmh 30.16 in1021.3 mb 0.00 in0.0 mm 0.00 in0.0 mm 0.00 in0.0 mm
10:00 AM 59.4°F15.2°C 31.6°F-0.2°C 35% 2.0 mph NW3.2 kmh NW 8.0 mph12.9 kmh 30.16 in1021.3 mb 0.00 in0.0 mm 0.00 in0.0 mm 0.00 in0.0 mm
10:30 AM 59.5°F15.3°C 27.1°F-2.7°C 29% 3.0 mph SSE4.8 kmh SSE 9.0 mph14.5 kmh 30.16 in1021.3 mb 0.00 in0.0 mm 0.00 in0.0 mm 0.00 in0.0 mm
11:00 AM 61.0°F16.1°C 30.2°F-1.0°C 31% 5.0 mph SW8.0 kmh SW 11.0 mph17.7 kmh 30.17 in1021.7 mb 0.00 in0.0 mm 0.00 in0.0 mm 0.00 in0.0 mm
11:30 AM 61.7°F16.5°C 29.1°F-1.6°C 29% 5.0 mph S8.0 kmh S 12.0 mph19.3 kmh 30.16 in1021.3 mb 0.00 in0.0 mm 0.00 in0.0 mm 0.00 in0.0 mm
12:00 PM 62.6°F17.0°C 28.9°F-1.7°C 28% 5.0 mph S8.0 kmh S 11.0 mph17.7 kmh 30.16 in1021.3 mb 0.00 in0.0 mm 0.00 in0.0 mm 0.00 in0.0 mm
12:30 PM 63.0°F17.2°C 31.8°F-0.1°C 31% 3.0 mph WSW4.8 kmh WSW 12.0 mph19.3 kmh 30.16 in1021.3 mb 0.00 in0.0 mm 0.00 in0.0 mm 0.00 in0.0 mm
01:00 PM 63.1°F17.3°C 32.7°F0.4°C 32% 5.0 mph S8.0 kmh S 12.0 mph19.3 kmh 30.14 in1020.7 mb 0.00 in0.0 mm 0.00 in0.0 mm 0.00 in0.0 mm
01:30 PM 64.2°F17.9°C 28.6°F-1.9°C 26% 8.0 mph SW12.9 kmh SW 14.0 mph22.5 kmh 30.13 in1020.3 mb 0.00 in0.0 mm 0.00 in0.0 mm 0.00 in0.0 mm
02:00 PM 66.4°F19.1°C 30.4°F-0.9°C 26% 4.0 mph WSW6.4 kmh WSW 13.0 mph20.9 kmh 30.12 in1020.0 mb 0.00 in0.0 mm 0.00 in0.0 mm 0.00 in0.0 mm
02:30 PM 64.8°F18.2°C 30.9°F-0.6°C 28% 12.0 mph SSW19.3 kmh SSW 22.0 mph35.4 kmh 30.10 in1019.3 mb 0.00 in0.0 mm 0.00 in0.0 mm 0.00 in0.0 mm
03:00 PM 65.5°F18.6°C 27.7°F-2.4°C 24% 11.0 mph S17.7 kmh S 21.0 mph33.8 kmh 30.11 in1019.6 mb 0.00 in0.0 mm 0.00 in0.0 mm 0.00 in0.0 mm
03:30 PM 64.0°F17.8°C 28.4°F-2.0°C 26% 10.0 mph S16.1 kmh S 19.0 mph30.6 kmh 30.12 in1020.0 mb 0.00 in0.0 mm 0.00 in0.0 mm 0.00 in0.0 mm
04:00 PM 58.8°F14.9°C 39.7°F4.3°C 49% 15.0 mph SE24.1 kmh SE 32.0 mph51.5 kmh 30.15 in1021.0 mb 0.00 in0.0 mm 0.00 in0.0 mm 0.00 in0.0 mm
04:30 PM 56.1°F13.4°C 41.2°F5.1°C 57% 8.0 mph SE12.9 kmh SE 20.0 mph32.2 kmh 30.17 in1021.7 mb 0.00 in0.0 mm 0.00 in0.0 mm 0.00 in0.0 mm
05:00 PM 55.0°F12.8°C 40.1°F4.5°C 57% 8.0 mph SSE12.9 kmh SSE 15.0 mph24.1 kmh 30.18 in1022.0 mb 0.00 in0.0 mm 0.00 in0.0 mm 0.00 in0.0 mm
05:30 PM 54.9°F12.7°C 39.4°F4.1°C 56% 7.0 mph SSE11.3 kmh SSE 14.0 mph22.5 kmh 30.18 in1022.0 mb 0.00 in0.0 mm 0.00 in0.0 mm 0.00 in0.0 mm
06:00 PM 54.1°F12.3°C 39.2°F4.0°C 57% 7.0 mph S11.3 kmh S 15.0 mph24.1 kmh 30.18 in1022.0 mb 0.00 in0.0 mm 0.00 in0.0 mm 0.00 in0.0 mm
06:30 PM 53.2°F11.8°C 38.5°F3.6°C 57% 4.0 mph S6.4 kmh S 11.0 mph17.7 kmh 30.19 in1022.4 mb 0.00 in0.0 mm 0.00 in0.0 mm 0.00 in0.0 mm
07:00 PM 52.9°F11.6°C 38.1°F3.4°C 57% 3.0 mph S4.8 kmh S 7.0 mph11.3 kmh 30.20 in1022.7 mb 0.00 in0.0 mm 0.00 in0.0 mm 0.00 in0.0 mm
07:30 PM 52.3°F11.3°C 38.5°F3.6°C 59% 2.0 mph SW3.2 kmh SW 8.0 mph12.9 kmh 30.20 in1022.7 mb 0.00 in0.0 mm 0.00 in0.0 mm 0.00 in0.0 mm
08:00 PM 51.1°F10.6°C 38.5°F3.6°C 62% Calm Calm 3.0 mph4.8 kmh 30.21 in1023.0 mb 0.00 in0.0 mm 0.00 in0.0 mm 0.00 in0.0 mm
08:30 PM 48.4°F9.1°C 37.6°F3.1°C 66% Calm Calm 2.0 mph3.2 kmh 30.23 in1023.7 mb 0.00 in0.0 mm 0.00 in0.0 mm 0.00 in0.0 mm
09:00 PM 47.7°F8.7°C 37.2°F2.9°C 67% Calm Calm -- 30.24 in1024.0 mb 0.00 in0.0 mm 0.00 in0.0 mm 0.00 in0.0 mm
09:30 PM 47.5°F8.6°C 37.4°F3.0°C 68% 3.0 mph NW4.8 kmh NW 7.0 mph11.3 kmh 30.24 in1024.0 mb 0.00 in0.0 mm 0.00 in0.0 mm 0.00 in0.0 mm
10:00 PM 47.3°F8.5°C 37.6°F3.1°C 69% 4.0 mph NW6.4 kmh NW 8.0 mph12.9 kmh 30.25 in1024.4 mb 0.00 in0.0 mm 0.00 in0.0 mm 0.00 in0.0 mm
10:30 PM 47.5°F8.6°C 38.1°F3.4°C 70% 3.0 mph NW4.8 kmh NW 7.0 mph11.3 kmh 30.25 in1024.4 mb 0.00 in0.0 mm 0.00 in0.0 mm 0.00 in0.0 mm
11:00 PM 48.4°F9.1°C 38.7°F3.7°C 69% 6.0 mph NW9.7 kmh NW 9.0 mph14.5 kmh 30.25 in1024.4 mb 0.00 in0.0 mm 0.00 in0.0 mm 0.00 in0.0 mm
11:30 PM 49.6°F9.8°C 39.0°F3.9°C 67% 7.0 mph WNW11.3 kmh WNW 11.0 mph17.7 kmh 30.25 in1024.4 mb 0.00 in0.0 mm 0.00 in0.0 mm 0.00 in0.0 mm